sensor_id;sensor_type;location;lat;lon;timestamp;P1;durP1;ratioP1;P2;durP2;ratioP2
50701;SDS011;36670;50.094;8.496;2023-07-29T00:00:14;1.42;;;1.33;;
50701;SDS011;36670;50.094;8.496;2023-07-29T00:02:39;1.42;;;1.42;;
50701;SDS011;36670;50.094;8.496;2023-07-29T00:05:05;1.33;;;1.30;;
50701;SDS011;36670;50.094;8.496;2023-07-29T00:07:30;1.35;;;1.30;;
50701;SDS011;36670;50.094;8.496;2023-07-29T00:09:56;1.20;;;1.20;;
50701;SDS011;36670;50.094;8.496;2023-07-29T00:12:21;1.17;;;1.10;;
50701;SDS011;36670;50.094;8.496;2023-07-29T00:14:46;1.30;;;1.30;;
50701;SDS011;36670;50.094;8.496;2023-07-29T00:17:12;0.82;;;0.82;;
50701;SDS011;36670;50.094;8.496;2023-07-29T00:19:37;0.57;;;0.57;;
50701;SDS011;36670;50.094;8.496;2023-07-29T00:22:03;0.60;;;0.60;;
50701;SDS011;36670;50.094;8.496;2023-07-29T00:24:29;1.05;;;1.05;;
50701;SDS011;36670;50.094;8.496;2023-07-29T00:26:54;2.15;;;2.05;;
50701;SDS011;36670;50.094;8.496;2023-07-29T00:29:19;1.10;;;1.07;;
50701;SDS011;36670;50.094;8.496;2023-07-29T00:31:45;1.25;;;1.25;;
50701;SDS011;36670;50.094;8.496;2023-07-29T00:34:10;1.00;;;1.00;;
50701;SDS011;36670;50.094;8.496;2023-07-29T00:36:35;0.57;;;0.57;;
50701;SDS011;36670;50.094;8.496;2023-07-29T00:39:01;1.30;;;1.30;;
50701;SDS011;36670;50.094;8.496;2023-07-29T00:41:26;1.70;;;1.70;;
50701;SDS011;36670;50.094;8.496;2023-07-29T00:43:51;1.70;;;1.60;;
50701;SDS011;36670;50.094;8.496;2023-07-29T00:46:16;0.90;;;0.90;;
50701;SDS011;36670;50.094;8.496;2023-07-29T00:48:42;2.08;;;1.42;;
50701;SDS011;36670;50.094;8.496;2023-07-29T00:51:07;2.88;;;2.40;;
50701;SDS011;36670;50.094;8.496;2023-07-29T00:53:33;1.67;;;1.55;;
50701;SDS011;36670;50.094;8.496;2023-07-29T00:55:58;1.70;;;1.60;;
50701;SDS011;36670;50.094;8.496;2023-07-29T00:58:24;1.55;;;1.50;;
50701;SDS011;36670;50.094;8.496;2023-07-29T01:00:49;2.03;;;1.92;;
50701;SDS011;36670;50.094;8.496;2023-07-29T01:03:15;2.20;;;2.10;;
50701;SDS011;36670;50.094;8.496;2023-07-29T01:05:56;3.38;;;3.05;;
50701;SDS011;36670;50.094;8.496;2023-07-29T01:08:35;1.52;;;1.52;;
50701;SDS011;36670;50.094;8.496;2023-07-29T01:16:47;3.75;;;3.47;;
50701;SDS011;36670;50.094;8.496;2023-07-29T01:19:24;2.50;;;2.40;;
50701;SDS011;36670;50.094;8.496;2023-07-29T01:21:59;0.55;;;0.55;;
50701;SDS011;36670;50.094;8.496;2023-07-29T01:24:26;2.05;;;1.88;;
50701;SDS011;36670;50.094;8.496;2023-07-29T01:26:51;1.90;;;1.90;;
50701;SDS011;36670;50.094;8.496;2023-07-29T01:29:17;0.80;;;0.80;;
50701;SDS011;36670;50.094;8.496;2023-07-29T01:31:43;0.93;;;0.93;;
50701;SDS011;36670;50.094;8.496;2023-07-29T01:34:18;0.82;;;0.82;;
50701;SDS011;36670;50.094;8.496;2023-07-29T01:36:53;2.65;;;1.33;;
50701;SDS011;36670;50.094;8.496;2023-07-29T01:39:22;1.80;;;1.70;;
50701;SDS011;36670;50.094;8.496;2023-07-29T01:41:50;1.33;;;1.33;;
50701;SDS011;36670;50.094;8.496;2023-07-29T01:44:16;2.45;;;2.35;;
50701;SDS011;36670;50.094;8.496;2023-07-29T01:46:43;1.02;;;1.02;;
50701;SDS011;36670;50.094;8.496;2023-07-29T01:49:09;0.80;;;0.80;;
50701;SDS011;36670;50.094;8.496;2023-07-29T01:51:34;1.30;;;1.30;;
50701;SDS011;36670;50.094;8.496;2023-07-29T01:53:59;2.45;;;1.50;;
50701;SDS011;36670;50.094;8.496;2023-07-29T01:56:25;1.77;;;1.67;;
50701;SDS011;36670;50.094;8.496;2023-07-29T01:58:50;1.02;;;1.02;;
50701;SDS011;36670;50.094;8.496;2023-07-29T02:01:15;1.67;;;1.63;;
50701;SDS011;36670;50.094;8.496;2023-07-29T02:03:42;0.40;;;0.40;;
50701;SDS011;36670;50.094;8.496;2023-07-29T02:06:07;3.60;;;1.13;;
50701;SDS011;36670;50.094;8.496;2023-07-29T02:08:32;1.13;;;0.75;;
50701;SDS011;36670;50.094;8.496;2023-07-29T02:10:58;1.75;;;1.65;;
50701;SDS011;36670;50.094;8.496;2023-07-29T02:13:23;14.23;;;2.37;;
50701;SDS011;36670;50.094;8.496;2023-07-29T02:15:48;3.40;;;1.45;;
50701;SDS011;36670;50.094;8.496;2023-07-29T02:18:14;1.30;;;1.30;;
50701;SDS011;36670;50.094;8.496;2023-07-29T02:20:39;18.50;;;1.58;;
50701;SDS011;36670;50.094;8.496;2023-07-29T02:23:04;3.28;;;2.55;;
50701;SDS011;36670;50.094;8.496;2023-07-29T02:25:30;1.38;;;1.25;;
50701;SDS011;36670;50.094;8.496;2023-07-29T02:27:55;1.20;;;1.20;;
50701;SDS011;36670;50.094;8.496;2023-07-29T02:30:20;0.40;;;0.40;;
50701;SDS011;36670;50.094;8.496;2023-07-29T02:32:46;1.55;;;1.55;;
50701;SDS011;36670;50.094;8.496;2023-07-29T02:35:11;1.42;;;1.33;;
50701;SDS011;36670;50.094;8.496;2023-07-29T02:37:37;2.15;;;2.05;;
50701;SDS011;36670;50.094;8.496;2023-07-29T02:40:02;10.63;;;1.88;;
50701;SDS011;36670;50.094;8.496;2023-07-29T02:42:28;3.45;;;2.38;;
50701;SDS011;36670;50.094;8.496;2023-07-29T02:44:54;1.92;;;1.42;;
50701;SDS011;36670;50.094;8.496;2023-07-29T02:47:19;1.38;;;1.38;;
50701;SDS011;36670;50.094;8.496;2023-07-29T02:49:44;4.17;;;2.70;;
50701;SDS011;36670;50.094;8.496;2023-07-29T02:52:10;3.35;;;3.15;;
50701;SDS011;36670;50.094;8.496;2023-07-29T02:54:35;2.63;;;2.47;;
50701;SDS011;36670;50.094;8.496;2023-07-29T02:57:00;1.83;;;1.73;;
50701;SDS011;36670;50.094;8.496;2023-07-29T02:59:26;1.42;;;1.38;;
50701;SDS011;36670;50.094;8.496;2023-07-29T03:01:51;1.93;;;1.83;;
50701;SDS011;36670;50.094;8.496;2023-07-29T03:04:18;1.80;;;1.48;;
50701;SDS011;36670;50.094;8.496;2023-07-29T03:06:43;1.65;;;1.65;;
50701;SDS011;36670;50.094;8.496;2023-07-29T03:09:09;1.67;;;1.58;;
50701;SDS011;36670;50.094;8.496;2023-07-29T03:11:34;1.10;;;1.10;;
50701;SDS011;36670;50.094;8.496;2023-07-29T03:14:00;1.08;;;1.08;;
50701;SDS011;36670;50.094;8.496;2023-07-29T03:16:25;2.90;;;2.75;;
50701;SDS011;36670;50.094;8.496;2023-07-29T03:18:51;1.95;;;1.88;;
50701;SDS011;36670;50.094;8.496;2023-07-29T03:21:16;10.20;;;1.90;;
50701;SDS011;36670;50.094;8.496;2023-07-29T03:23:41;1.70;;;1.70;;
50701;SDS011;36670;50.094;8.496;2023-07-29T03:26:06;2.37;;;2.17;;
50701;SDS011;36670;50.094;8.496;2023-07-29T03:28:36;2.53;;;2.38;;
50701;SDS011;36670;50.094;8.496;2023-07-29T03:31:03;1.77;;;1.67;;
50701;SDS011;36670;50.094;8.496;2023-07-29T03:33:28;1.95;;;1.80;;
50701;SDS011;36670;50.094;8.496;2023-07-29T03:35:53;4.18;;;2.45;;
50701;SDS011;36670;50.094;8.496;2023-07-29T03:38:19;0.82;;;0.82;;
50701;SDS011;36670;50.094;8.496;2023-07-29T03:40:44;1.02;;;1.02;;
50701;SDS011;36670;50.094;8.496;2023-07-29T03:43:10;0.85;;;0.85;;
50701;SDS011;36670;50.094;8.496;2023-07-29T03:45:36;3.42;;;1.55;;
50701;SDS011;36670;50.094;8.496;2023-07-29T03:48:02;2.22;;;2.13;;
50701;SDS011;36670;50.094;8.496;2023-07-29T03:50:28;0.95;;;0.95;;
50701;SDS011;36670;50.094;8.496;2023-07-29T03:52:54;3.03;;;1.75;;
50701;SDS011;36670;50.094;8.496;2023-07-29T03:55:20;2.80;;;1.30;;
50701;SDS011;36670;50.094;8.496;2023-07-29T03:57:45;1.75;;;1.67;;
50701;SDS011;36670;50.094;8.496;2023-07-29T04:00:11;1.95;;;1.85;;
50701;SDS011;36670;50.094;8.496;2023-07-29T04:02:36;1.95;;;1.85;;
50701;SDS011;36670;50.094;8.496;2023-07-29T04:05:02;3.10;;;2.55;;
50701;SDS011;36670;50.094;8.496;2023-07-29T04:07:28;2.63;;;1.98;;
50701;SDS011;36670;50.094;8.496;2023-07-29T04:09:54;1.35;;;1.25;;
50701;SDS011;36670;50.094;8.496;2023-07-29T04:12:19;1.77;;;1.67;;
50701;SDS011;36670;50.094;8.496;2023-07-29T04:14:46;1.23;;;1.13;;
50701;SDS011;36670;50.094;8.496;2023-07-29T04:17:11;4.78;;;3.03;;
50701;SDS011;36670;50.094;8.496;2023-07-29T04:19:37;1.98;;;1.95;;
50701;SDS011;36670;50.094;8.496;2023-07-29T04:22:02;1.63;;;1.50;;
50701;SDS011;36670;50.094;8.496;2023-07-29T04:24:28;0.80;;;0.80;;
50701;SDS011;36670;50.094;8.496;2023-07-29T04:26:53;7.15;;;2.75;;
50701;SDS011;36670;50.094;8.496;2023-07-29T04:29:18;1.95;;;1.75;;
50701;SDS011;36670;50.094;8.496;2023-07-29T04:31:43;2.17;;;2.07;;
50701;SDS011;36670;50.094;8.496;2023-07-29T04:34:09;2.47;;;2.37;;
50701;SDS011;36670;50.094;8.496;2023-07-29T04:36:34;1.90;;;1.70;;
50701;SDS011;36670;50.094;8.496;2023-07-29T04:39:00;3.22;;;1.92;;
50701;SDS011;36670;50.094;8.496;2023-07-29T04:41:25;2.80;;;2.53;;
50701;SDS011;36670;50.094;8.496;2023-07-29T04:43:50;2.22;;;2.13;;
50701;SDS011;36670;50.094;8.496;2023-07-29T04:46:15;1.23;;;1.23;;
50701;SDS011;36670;50.094;8.496;2023-07-29T04:48:41;1.20;;;1.20;;
50701;SDS011;36670;50.094;8.496;2023-07-29T04:51:06;0.77;;;0.77;;
50701;SDS011;36670;50.094;8.496;2023-07-29T04:53:32;1.40;;;1.40;;
50701;SDS011;36670;50.094;8.496;2023-07-29T04:55:58;1.20;;;1.20;;
50701;SDS011;36670;50.094;8.496;2023-07-29T04:58:23;1.80;;;1.70;;
50701;SDS011;36670;50.094;8.496;2023-07-29T05:00:48;1.50;;;1.17;;
50701;SDS011;36670;50.094;8.496;2023-07-29T05:03:13;1.98;;;1.88;;
50701;SDS011;36670;50.094;8.496;2023-07-29T05:05:39;1.55;;;1.23;;
50701;SDS011;36670;50.094;8.496;2023-07-29T05:08:04;0.97;;;0.97;;
50701;SDS011;36670;50.094;8.496;2023-07-29T05:10:29;2.17;;;2.08;;
50701;SDS011;36670;50.094;8.496;2023-07-29T05:12:55;1.33;;;1.33;;
50701;SDS011;36670;50.094;8.496;2023-07-29T05:15:20;0.87;;;0.87;;
50701;SDS011;36670;50.094;8.496;2023-07-29T05:17:45;2.40;;;1.17;;
50701;SDS011;36670;50.094;8.496;2023-07-29T05:20:11;1.50;;;1.50;;
50701;SDS011;36670;50.094;8.496;2023-07-29T05:22:36;1.73;;;1.73;;
50701;SDS011;36670;50.094;8.496;2023-07-29T05:25:02;1.23;;;1.23;;
50701;SDS011;36670;50.094;8.496;2023-07-29T05:27:27;1.65;;;1.55;;
50701;SDS011;36670;50.094;8.496;2023-07-29T05:29:53;0.82;;;0.82;;
50701;SDS011;36670;50.094;8.496;2023-07-29T05:32:18;1.80;;;1.70;;
50701;SDS011;36670;50.094;8.496;2023-07-29T05:34:43;1.63;;;1.52;;
50701;SDS011;36670;50.094;8.496;2023-07-29T05:37:09;0.95;;;0.93;;
50701;SDS011;36670;50.094;8.496;2023-07-29T05:39:35;1.45;;;1.30;;
50701;SDS011;36670;50.094;8.496;2023-07-29T05:42:00;5.88;;;1.77;;
50701;SDS011;36670;50.094;8.496;2023-07-29T05:44:27;1.90;;;1.80;;
50701;SDS011;36670;50.094;8.496;2023-07-29T05:46:53;1.65;;;1.52;;
50701;SDS011;36670;50.094;8.496;2023-07-29T05:49:18;2.03;;;2.00;;
50701;SDS011;36670;50.094;8.496;2023-07-29T05:51:43;1.13;;;1.13;;
50701;SDS011;36670;50.094;8.496;2023-07-29T05:54:09;1.25;;;1.17;;
50701;SDS011;36670;50.094;8.496;2023-07-29T05:56:34;1.87;;;1.77;;
50701;SDS011;36670;50.094;8.496;2023-07-29T05:58:59;1.50;;;1.40;;
50701;SDS011;36670;50.094;8.496;2023-07-29T06:01:25;2.95;;;2.75;;
50701;SDS011;36670;50.094;8.496;2023-07-29T06:03:51;2.35;;;2.25;;
50701;SDS011;36670;50.094;8.496;2023-07-29T06:06:16;1.33;;;1.30;;
50701;SDS011;36670;50.094;8.496;2023-07-29T06:08:41;1.75;;;1.65;;
50701;SDS011;36670;50.094;8.496;2023-07-29T06:11:07;2.30;;;2.20;;
50701;SDS011;36670;50.094;8.496;2023-07-29T06:13:32;2.67;;;2.47;;
50701;SDS011;36670;50.094;8.496;2023-07-29T06:15:58;2.20;;;2.10;;
50701;SDS011;36670;50.094;8.496;2023-07-29T06:18:24;2.38;;;2.28;;
50701;SDS011;36670;50.094;8.496;2023-07-29T06:20:49;1.52;;;1.38;;
50701;SDS011;36670;50.094;8.496;2023-07-29T06:23:15;0.98;;;0.98;;
50701;SDS011;36670;50.094;8.496;2023-07-29T06:25:40;1.83;;;1.73;;
50701;SDS011;36670;50.094;8.496;2023-07-29T06:28:05;1.97;;;1.80;;
50701;SDS011;36670;50.094;8.496;2023-07-29T06:30:31;2.17;;;2.07;;
50701;SDS011;36670;50.094;8.496;2023-07-29T06:32:56;1.20;;;1.20;;
50701;SDS011;36670;50.094;8.496;2023-07-29T06:35:21;0.98;;;0.98;;
50701;SDS011;36670;50.094;8.496;2023-07-29T06:37:46;1.35;;;1.35;;
50701;SDS011;36670;50.094;8.496;2023-07-29T06:40:12;0.63;;;0.63;;
50701;SDS011;36670;50.094;8.496;2023-07-29T06:42:37;1.38;;;1.25;;
50701;SDS011;36670;50.094;8.496;2023-07-29T06:45:03;1.40;;;1.40;;
50701;SDS011;36670;50.094;8.496;2023-07-29T06:47:29;2.30;;;2.20;;
50701;SDS011;36670;50.094;8.496;2023-07-29T06:49:55;1.38;;;1.38;;
50701;SDS011;36670;50.094;8.496;2023-07-29T06:52:20;1.50;;;1.50;;
50701;SDS011;36670;50.094;8.496;2023-07-29T06:54:45;1.23;;;1.23;;
50701;SDS011;36670;50.094;8.496;2023-07-29T06:57:10;0.43;;;0.43;;
50701;SDS011;36670;50.094;8.496;2023-07-29T06:59:36;0.80;;;0.80;;
50701;SDS011;36670;50.094;8.496;2023-07-29T07:02:01;0.55;;;0.55;;
50701;SDS011;36670;50.094;8.496;2023-07-29T07:04:26;1.65;;;1.25;;
50701;SDS011;36670;50.094;8.496;2023-07-29T07:06:52;0.95;;;0.95;;
50701;SDS011;36670;50.094;8.496;2023-07-29T07:09:17;0.63;;;0.63;;
50701;SDS011;36670;50.094;8.496;2023-07-29T07:11:42;1.23;;;1.23;;
50701;SDS011;36670;50.094;8.496;2023-07-29T07:14:08;1.23;;;1.23;;
50701;SDS011;36670;50.094;8.496;2023-07-29T07:16:33;1.27;;;1.17;;
50701;SDS011;36670;50.094;8.496;2023-07-29T07:19:01;0.65;;;0.65;;
50701;SDS011;36670;50.094;8.496;2023-07-29T07:21:26;0.98;;;0.98;;
50701;SDS011;36670;50.094;8.496;2023-07-29T07:23:52;1.77;;;1.67;;
50701;SDS011;36670;50.094;8.496;2023-07-29T07:26:17;1.02;;;1.02;;
50701;SDS011;36670;50.094;8.496;2023-07-29T07:28:42;1.10;;;1.10;;
50701;SDS011;36670;50.094;8.496;2023-07-29T07:31:08;0.65;;;0.65;;
50701;SDS011;36670;50.094;8.496;2023-07-29T07:33:33;1.27;;;1.27;;
50701;SDS011;36670;50.094;8.496;2023-07-29T07:35:58;1.00;;;1.00;;
50701;SDS011;36670;50.094;8.496;2023-07-29T07:38:23;1.30;;;1.30;;
50701;SDS011;36670;50.094;8.496;2023-07-29T07:40:52;1.38;;;1.38;;
50701;SDS011;36670;50.094;8.496;2023-07-29T07:43:20;4.22;;;2.20;;
50701;SDS011;36670;50.094;8.496;2023-07-29T07:45:45;1.38;;;1.38;;
50701;SDS011;36670;50.094;8.496;2023-07-29T07:48:10;1.80;;;1.70;;
50701;SDS011;36670;50.094;8.496;2023-07-29T07:50:37;8.32;;;1.92;;
50701;SDS011;36670;50.094;8.496;2023-07-29T07:53:03;1.02;;;1.02;;
50701;SDS011;36670;50.094;8.496;2023-07-29T07:55:28;2.00;;;1.90;;
50701;SDS011;36670;50.094;8.496;2023-07-29T07:57:53;1.33;;;1.30;;
50701;SDS011;36670;50.094;8.496;2023-07-29T08:00:19;0.90;;;0.90;;
50701;SDS011;36670;50.094;8.496;2023-07-29T08:02:44;1.63;;;1.58;;
50701;SDS011;36670;50.094;8.496;2023-07-29T08:05:10;1.75;;;1.65;;
50701;SDS011;36670;50.094;8.496;2023-07-29T08:07:35;1.45;;;1.35;;
50701;SDS011;36670;50.094;8.496;2023-07-29T08:10:00;1.20;;;1.05;;
50701;SDS011;36670;50.094;8.496;2023-07-29T08:12:26;1.40;;;1.30;;
50701;SDS011;36670;50.094;8.496;2023-07-29T08:14:51;0.90;;;0.90;;
50701;SDS011;36670;50.094;8.496;2023-07-29T08:17:16;1.00;;;0.95;;
50701;SDS011;36670;50.094;8.496;2023-07-29T08:19:42;2.20;;;1.30;;
50701;SDS011;36670;50.094;8.496;2023-07-29T08:22:07;1.73;;;1.63;;
50701;SDS011;36670;50.094;8.496;2023-07-29T08:24:32;0.38;;;0.38;;
50701;SDS011;36670;50.094;8.496;2023-07-29T08:26:59;2.40;;;1.38;;
50701;SDS011;36670;50.094;8.496;2023-07-29T08:29:24;1.30;;;1.30;;
50701;SDS011;36670;50.094;8.496;2023-07-29T08:31:49;0.60;;;0.60;;
50701;SDS011;36670;50.094;8.496;2023-07-29T08:34:16;1.13;;;0.85;;
50701;SDS011;36670;50.094;8.496;2023-07-29T08:36:41;0.93;;;0.93;;
50701;SDS011;36670;50.094;8.496;2023-07-29T08:39:07;1.23;;;1.23;;
50701;SDS011;36670;50.094;8.496;2023-07-29T08:44:41;0.30;;;0.30;;
50701;SDS011;36670;50.094;8.496;2023-07-29T08:47:08;1.15;;;1.15;;
50701;SDS011;36670;50.094;8.496;2023-07-29T08:49:34;0.65;;;0.65;;
50701;SDS011;36670;50.094;8.496;2023-07-29T08:52:00;0.43;;;0.43;;
50701;SDS011;36670;50.094;8.496;2023-07-29T08:54:26;0.52;;;0.52;;
50701;SDS011;36670;50.094;8.496;2023-07-29T08:56:52;1.88;;;1.75;;
50701;SDS011;36670;50.094;8.496;2023-07-29T08:59:17;0.35;;;0.35;;
50701;SDS011;36670;50.094;8.496;2023-07-29T09:01:44;0.20;;;0.20;;
50701;SDS011;36670;50.094;8.496;2023-07-29T09:04:09;0.65;;;0.65;;
50701;SDS011;36670;50.094;8.496;2023-07-29T09:06:35;0.47;;;0.47;;
50701;SDS011;36670;50.094;8.496;2023-07-29T09:09:03;0.52;;;0.52;;
50701;SDS011;36670;50.094;8.496;2023-07-29T09:11:28;1.00;;;1.00;;
50701;SDS011;36670;50.094;8.496;2023-07-29T09:13:54;0.40;;;0.40;;
50701;SDS011;36670;50.094;8.496;2023-07-29T09:16:20;0.52;;;0.52;;
50701;SDS011;36670;50.094;8.496;2023-07-29T09:18:49;0.65;;;0.65;;
50701;SDS011;36670;50.094;8.496;2023-07-29T09:21:16;1.90;;;1.75;;
50701;SDS011;36670;50.094;8.496;2023-07-29T09:23:43;0.40;;;0.40;;
50701;SDS011;36670;50.094;8.496;2023-07-29T09:26:09;0.40;;;0.40;;
50701;SDS011;36670;50.094;8.496;2023-07-29T09:28:36;1.00;;;0.93;;
50701;SDS011;36670;50.094;8.496;2023-07-29T09:31:03;0.60;;;0.60;;
50701;SDS011;36670;50.094;8.496;2023-07-29T09:33:29;0.40;;;0.40;;
50701;SDS011;36670;50.094;8.496;2023-07-29T09:35:59;0.55;;;0.55;;
50701;SDS011;36670;50.094;8.496;2023-07-29T09:38:28;0.52;;;0.52;;
50701;SDS011;36670;50.094;8.496;2023-07-29T09:40:56;0.20;;;0.20;;
50701;SDS011;36670;50.094;8.496;2023-07-29T09:43:26;0.73;;;0.73;;
50701;SDS011;36670;50.094;8.496;2023-07-29T09:45:55;0.30;;;0.30;;
50701;SDS011;36670;50.094;8.496;2023-07-29T09:48:27;0.20;;;0.20;;
50701;SDS011;36670;50.094;8.496;2023-07-29T09:50:56;0.22;;;0.22;;
50701;SDS011;36670;50.094;8.496;2023-07-29T09:53:21;0.77;;;0.77;;
50701;SDS011;36670;50.094;8.496;2023-07-29T09:55:47;0.30;;;0.30;;
50701;SDS011;36670;50.094;8.496;2023-07-29T09:58:13;0.63;;;0.63;;
50701;SDS011;36670;50.094;8.496;2023-07-29T10:00:39;0.90;;;0.90;;
50701;SDS011;36670;50.094;8.496;2023-07-29T10:03:05;0.55;;;0.55;;
50701;SDS011;36670;50.094;8.496;2023-07-29T10:05:31;0.50;;;0.50;;
50701;SDS011;36670;50.094;8.496;2023-07-29T10:07:59;0.45;;;0.45;;
50701;SDS011;36670;50.094;8.496;2023-07-29T10:10:25;0.32;;;0.32;;
50701;SDS011;36670;50.094;8.496;2023-07-29T10:12:51;0.20;;;0.20;;
50701;SDS011;36670;50.094;8.496;2023-07-29T10:15:18;0.50;;;0.32;;
50701;SDS011;36670;50.094;8.496;2023-07-29T10:17:43;0.30;;;0.30;;
50701;SDS011;36670;50.094;8.496;2023-07-29T10:20:11;0.38;;;0.38;;
50701;SDS011;36670;50.094;8.496;2023-07-29T10:22:37;0.65;;;0.65;;
50701;SDS011;36670;50.094;8.496;2023-07-29T10:25:04;0.80;;;0.80;;
50701;SDS011;36670;50.094;8.496;2023-07-29T10:27:49;0.60;;;0.60;;
50701;SDS011;36670;50.094;8.496;2023-07-29T10:30:18;0.50;;;0.43;;
50701;SDS011;36670;50.094;8.496;2023-07-29T10:32:44;0.10;;;0.10;;
50701;SDS011;36670;50.094;8.496;2023-07-29T10:35:11;0.20;;;0.20;;
50701;SDS011;36670;50.094;8.496;2023-07-29T10:37:37;0.50;;;0.50;;
50701;SDS011;36670;50.094;8.496;2023-07-29T10:40:05;1.65;;;0.70;;
50701;SDS011;36670;50.094;8.496;2023-07-29T10:42:32;1.15;;;1.15;;
50701;SDS011;36670;50.094;8.496;2023-07-29T10:44:57;0.68;;;0.68;;
50701;SDS011;36670;50.094;8.496;2023-07-29T10:47:26;0.10;;;0.10;;
50701;SDS011;36670;50.094;8.496;2023-07-29T10:49:55;0.25;;;0.25;;
50701;SDS011;36670;50.094;8.496;2023-07-29T10:54:59;0.32;;;0.32;;
50701;SDS011;36670;50.094;8.496;2023-07-29T10:57:35;0.35;;;0.35;;
50701;SDS011;36670;50.094;8.496;2023-07-29T11:00:02;0.93;;;0.82;;
50701;SDS011;36670;50.094;8.496;2023-07-29T11:02:36;0.73;;;0.73;;
50701;SDS011;36670;50.094;8.496;2023-07-29T11:05:18;0.40;;;0.40;;
50701;SDS011;36670;50.094;8.496;2023-07-29T11:07:47;0.30;;;0.30;;
50701;SDS011;36670;50.094;8.496;2023-07-29T11:10:13;0.20;;;0.20;;
50701;SDS011;36670;50.094;8.496;2023-07-29T11:12:43;0.28;;;0.17;;
50701;SDS011;36670;50.094;8.496;2023-07-29T11:15:26;0.30;;;0.30;;
50701;SDS011;36670;50.094;8.496;2023-07-29T11:17:56;0.13;;;0.13;;
50701;SDS011;36670;50.094;8.496;2023-07-29T11:22:54;0.55;;;0.55;;
50701;SDS011;36670;50.094;8.496;2023-07-29T11:25:21;2.13;;;0.90;;
50701;SDS011;36670;50.094;8.496;2023-07-29T11:27:48;0.55;;;0.55;;
50701;SDS011;36670;50.094;8.496;2023-07-29T11:30:15;0.50;;;0.50;;
50701;SDS011;36670;50.094;8.496;2023-07-29T11:32:41;0.95;;;0.95;;
50701;SDS011;36670;50.094;8.496;2023-07-29T11:35:18;0.35;;;0.35;;
50701;SDS011;36670;50.094;8.496;2023-07-29T11:37:45;0.77;;;0.77;;
50701;SDS011;36670;50.094;8.496;2023-07-29T11:40:15;0.95;;;0.95;;
50701;SDS011;36670;50.094;8.496;2023-07-29T11:42:42;0.88;;;0.88;;
50701;SDS011;36670;50.094;8.496;2023-07-29T11:45:08;0.30;;;0.30;;
50701;SDS011;36670;50.094;8.496;2023-07-29T11:47:34;0.22;;;0.22;;
50701;SDS011;36670;50.094;8.496;2023-07-29T11:50:04;0.30;;;0.30;;
50701;SDS011;36670;50.094;8.496;2023-07-29T11:52:31;0.43;;;0.43;;
50701;SDS011;36670;50.094;8.496;2023-07-29T11:54:58;1.02;;;0.70;;
50701;SDS011;36670;50.094;8.496;2023-07-29T11:57:25;0.10;;;0.10;;
50701;SDS011;36670;50.094;8.496;2023-07-29T11:59:51;0.52;;;0.52;;
50701;SDS011;36670;50.094;8.496;2023-07-29T12:02:17;1.00;;;0.50;;
50701;SDS011;36670;50.094;8.496;2023-07-29T12:04:46;0.45;;;0.45;;
50701;SDS011;36670;50.094;8.496;2023-07-29T12:07:13;0.40;;;0.40;;
50701;SDS011;36670;50.094;8.496;2023-07-29T12:09:39;0.30;;;0.30;;
50701;SDS011;36670;50.094;8.496;2023-07-29T12:12:06;0.35;;;0.35;;
50701;SDS011;36670;50.094;8.496;2023-07-29T12:14:32;0.65;;;0.65;;
50701;SDS011;36670;50.094;8.496;2023-07-29T12:17:02;2.05;;;0.85;;
50701;SDS011;36670;50.094;8.496;2023-07-29T12:19:34;0.68;;;0.47;;
50701;SDS011;36670;50.094;8.496;2023-07-29T12:22:01;0.40;;;0.40;;
50701;SDS011;36670;50.094;8.496;2023-07-29T12:24:29;0.20;;;0.20;;
50701;SDS011;36670;50.094;8.496;2023-07-29T12:26:55;0.75;;;0.60;;
50701;SDS011;36670;50.094;8.496;2023-07-29T12:29:20;0.90;;;0.90;;
50701;SDS011;36670;50.094;8.496;2023-07-29T12:31:46;1.30;;;1.23;;
50701;SDS011;36670;50.094;8.496;2023-07-29T12:34:20;0.68;;;0.68;;
50701;SDS011;36670;50.094;8.496;2023-07-29T12:36:50;0.40;;;0.40;;
50701;SDS011;36670;50.094;8.496;2023-07-29T12:41:46;0.70;;;0.43;;
50701;SDS011;36670;50.094;8.496;2023-07-29T12:44:12;1.52;;;1.42;;
50701;SDS011;36670;50.094;8.496;2023-07-29T12:46:37;0.80;;;0.55;;
50701;SDS011;36670;50.094;8.496;2023-07-29T12:49:03;0.30;;;0.30;;
50701;SDS011;36670;50.094;8.496;2023-07-29T12:51:28;0.15;;;0.15;;
50701;SDS011;36670;50.094;8.496;2023-07-29T12:53:53;0.80;;;0.80;;
50701;SDS011;36670;50.094;8.496;2023-07-29T12:56:19;0.45;;;0.45;;
50701;SDS011;36670;50.094;8.496;2023-07-29T12:58:45;1.38;;;1.27;;
50701;SDS011;36670;50.094;8.496;2023-07-29T13:01:10;0.38;;;0.38;;
50701;SDS011;36670;50.094;8.496;2023-07-29T13:03:41;0.88;;;0.88;;
50701;SDS011;36670;50.094;8.496;2023-07-29T13:06:07;1.17;;;1.08;;
50701;SDS011;36670;50.094;8.496;2023-07-29T13:08:32;1.08;;;1.08;;
50701;SDS011;36670;50.094;8.496;2023-07-29T13:10:57;0.85;;;0.77;;
50701;SDS011;36670;50.094;8.496;2023-07-29T13:13:23;1.23;;;1.23;;
50701;SDS011;36670;50.094;8.496;2023-07-29T13:15:48;5.00;;;1.20;;
50701;SDS011;36670;50.094;8.496;2023-07-29T13:18:13;0.73;;;0.73;;
50701;SDS011;36670;50.094;8.496;2023-07-29T13:20:38;0.95;;;0.95;;
50701;SDS011;36670;50.094;8.496;2023-07-29T13:23:04;0.90;;;0.90;;
50701;SDS011;36670;50.094;8.496;2023-07-29T13:25:29;1.30;;;1.25;;
50701;SDS011;36670;50.094;8.496;2023-07-29T13:27:54;0.90;;;0.80;;
50701;SDS011;36670;50.094;8.496;2023-07-29T13:30:20;0.47;;;0.47;;
50701;SDS011;36670;50.094;8.496;2023-07-29T13:32:45;0.27;;;0.27;;
50701;SDS011;36670;50.094;8.496;2023-07-29T13:35:10;1.48;;;0.82;;
50701;SDS011;36670;50.094;8.496;2023-07-29T13:37:36;0.25;;;0.25;;
50701;SDS011;36670;50.094;8.496;2023-07-29T13:40:01;0.20;;;0.20;;
50701;SDS011;36670;50.094;8.496;2023-07-29T13:42:26;0.20;;;0.20;;
50701;SDS011;36670;50.094;8.496;2023-07-29T13:44:51;0.50;;;0.50;;
50701;SDS011;36670;50.094;8.496;2023-07-29T13:47:17;0.88;;;0.88;;
50701;SDS011;36670;50.094;8.496;2023-07-29T13:49:42;0.35;;;0.35;;
50701;SDS011;36670;50.094;8.496;2023-07-29T13:52:07;0.55;;;0.55;;
50701;SDS011;36670;50.094;8.496;2023-07-29T13:54:33;0.82;;;0.82;;
50701;SDS011;36670;50.094;8.496;2023-07-29T13:56:58;0.65;;;0.65;;
50701;SDS011;36670;50.094;8.496;2023-07-29T13:59:23;0.90;;;0.90;;
50701;SDS011;36670;50.094;8.496;2023-07-29T14:01:49;0.65;;;0.65;;
50701;SDS011;36670;50.094;8.496;2023-07-29T14:04:14;0.52;;;0.52;;
50701;SDS011;36670;50.094;8.496;2023-07-29T14:06:39;0.23;;;0.23;;
50701;SDS011;36670;50.094;8.496;2023-07-29T14:09:04;0.22;;;0.22;;
50701;SDS011;36670;50.094;8.496;2023-07-29T14:11:30;0.35;;;0.35;;
50701;SDS011;36670;50.094;8.496;2023-07-29T14:13:55;0.63;;;0.63;;
50701;SDS011;36670;50.094;8.496;2023-07-29T14:16:20;0.30;;;0.30;;
50701;SDS011;36670;50.094;8.496;2023-07-29T14:18:46;0.30;;;0.30;;
50701;SDS011;36670;50.094;8.496;2023-07-29T14:21:11;0.67;;;0.67;;
50701;SDS011;36670;50.094;8.496;2023-07-29T14:23:36;0.60;;;0.60;;
50701;SDS011;36670;50.094;8.496;2023-07-29T14:26:01;1.13;;;1.13;;
50701;SDS011;36670;50.094;8.496;2023-07-29T14:28:27;1.02;;;0.60;;
50701;SDS011;36670;50.094;8.496;2023-07-29T14:30:52;9.02;;;2.35;;
50701;SDS011;36670;50.094;8.496;2023-07-29T14:33:17;1.13;;;0.90;;
50701;SDS011;36670;50.094;8.496;2023-07-29T14:35:43;1.00;;;0.90;;
50701;SDS011;36670;50.094;8.496;2023-07-29T14:38:08;0.80;;;0.80;;
50701;SDS011;36670;50.094;8.496;2023-07-29T14:40:33;0.40;;;0.40;;
50701;SDS011;36670;50.094;8.496;2023-07-29T14:42:58;0.20;;;0.20;;
50701;SDS011;36670;50.094;8.496;2023-07-29T14:45:24;0.15;;;0.15;;
50701;SDS011;36670;50.094;8.496;2023-07-29T14:47:49;0.28;;;0.28;;
50701;SDS011;36670;50.094;8.496;2023-07-29T14:50:15;0.40;;;0.40;;
50701;SDS011;36670;50.094;8.496;2023-07-29T14:52:40;0.77;;;0.77;;
50701;SDS011;36670;50.094;8.496;2023-07-29T14:55:05;0.70;;;0.70;;
50701;SDS011;36670;50.094;8.496;2023-07-29T14:57:31;0.90;;;0.90;;